sensor_id;sensor_type;location;lat;lon;timestamp;pressure;altitude;pressure_sealevel;temperature;humidity
28797;BME280;24974;54.444;18.560;2022-12-07T00:00:20;100490.44;;;6.75;64.19
28797;BME280;24974;54.444;18.560;2022-12-07T00:02:51;100487.56;;;6.32;65.25
28797;BME280;24974;54.444;18.560;2022-12-07T00:05:22;100484.13;;;6.51;64.75
28797;BME280;24974;54.444;18.560;2022-12-07T00:07:52;100482.53;;;6.73;64.23
28797;BME280;24974;54.444;18.560;2022-12-07T00:10:23;100481.66;;;6.49;64.63
28797;BME280;24974;54.444;18.560;2022-12-07T00:12:54;100480.44;;;6.36;65.34
28797;BME280;24974;54.444;18.560;2022-12-07T00:15:25;100477.56;;;6.52;65.25
28797;BME280;24974;54.444;18.560;2022-12-07T00:17:56;100482.63;;;6.92;63.49
28797;BME280;24974;54.444;18.560;2022-12-07T00:20:27;100479.97;;;6.58;64.37
28797;BME280;24974;54.444;18.560;2022-12-07T00:22:58;100481.81;;;6.63;63.72
28797;BME280;24974;54.444;18.560;2022-12-07T00:25:30;100478.34;;;6.81;63.68
28797;BME280;24974;54.444;18.560;2022-12-07T00:28:01;100470.16;;;6.81;63.46
28797;BME280;24974;54.444;18.560;2022-12-07T00:30:32;100471.56;;;7.26;62.23
28797;BME280;24974;54.444;18.560;2022-12-07T00:33:03;100470.09;;;7.34;61.45
28797;BME280;24974;54.444;18.560;2022-12-07T00:35:33;100470.53;;;6.98;63.25
28797;BME280;24974;54.444;18.560;2022-12-07T00:38:04;100479.69;;;7.32;62.39
28797;BME280;24974;54.444;18.560;2022-12-07T00:40:35;100471.50;;;6.84;63.89
28797;BME280;24974;54.444;18.560;2022-12-07T00:43:06;100472.56;;;7.12;62.92
28797;BME280;24974;54.444;18.560;2022-12-07T00:45:37;100477.72;;;7.13;62.47
28797;BME280;24974;54.444;18.560;2022-12-07T00:48:08;100474.34;;;7.21;62.62
28797;BME280;24974;54.444;18.560;2022-12-07T00:50:38;100468.84;;;7.45;62.05
28797;BME280;24974;54.444;18.560;2022-12-07T00:53:09;100471.25;;;7.71;61.47
28797;BME280;24974;54.444;18.560;2022-12-07T00:55:41;100466.91;;;7.27;62.14
28797;BME280;24974;54.444;18.560;2022-12-07T00:58:12;100466.88;;;6.55;64.06
28797;BME280;24974;54.444;18.560;2022-12-07T01:00:43;100460.25;;;6.90;64.23
28797;BME280;24974;54.444;18.560;2022-12-07T01:03:15;100454.84;;;7.28;62.48
28797;BME280;24974;54.444;18.560;2022-12-07T01:05:52;100457.53;;;6.61;63.92
28797;BME280;24974;54.444;18.560;2022-12-07T01:08:24;100452.97;;;6.81;63.54
28797;BME280;24974;54.444;18.560;2022-12-07T01:11:04;100447.63;;;6.41;65.01
28797;BME280;24974;54.444;18.560;2022-12-07T01:13:35;100446.75;;;6.46;65.20
28797;BME280;24974;54.444;18.560;2022-12-07T01:16:07;100442.78;;;6.86;64.28
28797;BME280;24974;54.444;18.560;2022-12-07T01:18:40;100449.16;;;6.53;65.00
28797;BME280;24974;54.444;18.560;2022-12-07T01:21:16;100440.06;;;6.62;64.42
28797;BME280;24974;54.444;18.560;2022-12-07T01:23:48;100439.53;;;6.60;64.86
28797;BME280;24974;54.444;18.560;2022-12-07T07:25:22;100157.09;;;7.18;61.29
28797;BME280;24974;54.444;18.560;2022-12-07T07:27:53;100155.56;;;6.79;62.86
28797;BME280;24974;54.444;18.560;2022-12-07T07:30:24;100152.75;;;6.28;63.78
28797;BME280;24974;54.444;18.560;2022-12-07T07:32:57;100158.44;;;6.69;63.30
28797;BME280;24974;54.444;18.560;2022-12-07T07:35:30;100160.13;;;6.65;63.17
28797;BME280;24974;54.444;18.560;2022-12-07T07:38:02;100160.53;;;6.58;62.74
28797;BME280;24974;54.444;18.560;2022-12-07T07:40:34;100155.34;;;5.71;65.75
28797;BME280;24974;54.444;18.560;2022-12-07T07:43:05;100154.63;;;6.08;64.33
28797;BME280;24974;54.444;18.560;2022-12-07T07:45:36;100157.13;;;6.29;63.95
28797;BME280;24974;54.444;18.560;2022-12-07T07:48:07;100161.31;;;6.40;63.58
28797;BME280;24974;54.444;18.560;2022-12-07T07:50:39;100161.81;;;6.04;64.53
28797;BME280;24974;54.444;18.560;2022-12-07T07:53:10;100164.56;;;6.23;63.99
28797;BME280;24974;54.444;18.560;2022-12-07T07:55:41;100160.22;;;5.98;64.93
28797;BME280;24974;54.444;18.560;2022-12-07T07:58:12;100155.13;;;6.53;63.29
28797;BME280;24974;54.444;18.560;2022-12-07T08:00:43;100156.72;;;6.16;64.27
28797;BME280;24974;54.444;18.560;2022-12-07T08:03:13;100153.91;;;6.03;64.65
28797;BME280;24974;54.444;18.560;2022-12-07T08:05:44;100157.22;;;6.00;64.80
28797;BME280;24974;54.444;18.560;2022-12-07T08:08:16;100165.09;;;6.01;64.35
28797;BME280;24974;54.444;18.560;2022-12-07T08:10:46;100152.72;;;6.09;64.39
28797;BME280;24974;54.444;18.560;2022-12-07T08:13:17;100157.28;;;6.75;62.60
28797;BME280;24974;54.444;18.560;2022-12-07T08:15:48;100151.47;;;6.01;64.49
28797;BME280;24974;54.444;18.560;2022-12-07T08:18:19;100150.88;;;5.80;65.43
28797;BME280;24974;54.444;18.560;2022-12-07T08:20:50;100144.84;;;6.07;64.67
28797;BME280;24974;54.444;18.560;2022-12-07T08:23:21;100154.47;;;6.42;63.84
28797;BME280;24974;54.444;18.560;2022-12-07T08:25:51;100160.06;;;6.32;64.44
28797;BME280;24974;54.444;18.560;2022-12-07T08:28:22;100156.66;;;6.40;64.31
28797;BME280;24974;54.444;18.560;2022-12-07T08:31:01;100158.94;;;5.67;65.71
28797;BME280;24974;54.444;18.560;2022-12-07T08:33:33;100147.44;;;6.17;64.18
28797;BME280;24974;54.444;18.560;2022-12-07T08:36:09;100146.28;;;6.00;64.71
28797;BME280;24974;54.444;18.560;2022-12-07T08:38:41;100142.38;;;6.30;63.96
28797;BME280;24974;54.444;18.560;2022-12-07T08:41:12;100136.19;;;6.43;64.16
28797;BME280;24974;54.444;18.560;2022-12-07T08:43:43;100140.53;;;6.44;63.91
28797;BME280;24974;54.444;18.560;2022-12-07T08:46:21;100141.84;;;6.47;63.26
28797;BME280;24974;54.444;18.560;2022-12-07T08:49:20;100138.66;;;6.21;63.70
28797;BME280;24974;54.444;18.560;2022-12-07T08:51:49;100135.84;;;6.07;63.74
28797;BME280;24974;54.444;18.560;2022-12-07T08:54:20;100129.53;;;6.11;64.09
28797;BME280;24974;54.444;18.560;2022-12-07T08:56:51;100127.09;;;6.48;63.07
28797;BME280;24974;54.444;18.560;2022-12-07T08:59:24;100138.31;;;6.46;62.82
28797;BME280;24974;54.444;18.560;2022-12-07T09:01:55;100127.81;;;6.15;64.00
28797;BME280;24974;54.444;18.560;2022-12-07T09:04:26;100127.09;;;6.29;63.47
28797;BME280;24974;54.444;18.560;2022-12-07T09:06:58;100118.31;;;6.13;63.18
28797;BME280;24974;54.444;18.560;2022-12-07T09:09:29;100119.22;;;6.27;63.33
28797;BME280;24974;54.444;18.560;2022-12-07T09:12:00;100118.31;;;6.51;61.85
28797;BME280;24974;54.444;18.560;2022-12-07T09:14:31;100117.59;;;6.45;62.57
28797;BME280;24974;54.444;18.560;2022-12-07T09:17:11;100123.63;;;6.61;61.98
28797;BME280;24974;54.444;18.560;2022-12-07T09:19:43;100123.72;;;6.37;62.47
28797;BME280;24974;54.444;18.560;2022-12-07T09:22:14;100124.22;;;6.58;62.01
28797;BME280;24974;54.444;18.560;2022-12-07T09:24:45;100107.69;;;6.68;61.71
28797;BME280;24974;54.444;18.560;2022-12-07T09:27:16;100108.84;;;6.62;61.45
28797;BME280;24974;54.444;18.560;2022-12-07T09:29:49;100115.19;;;6.57;62.02
28797;BME280;24974;54.444;18.560;2022-12-07T09:32:20;100115.22;;;6.20;62.59
28797;BME280;24974;54.444;18.560;2022-12-07T09:34:51;100109.19;;;6.93;60.99
28797;BME280;24974;54.444;18.560;2022-12-07T09:37:22;100123.09;;;6.40;62.06
28797;BME280;24974;54.444;18.560;2022-12-07T09:39:53;100114.97;;;6.16;61.44
28797;BME280;24974;54.444;18.560;2022-12-07T09:42:32;100104.00;;;6.59;61.15
28797;BME280;24974;54.444;18.560;2022-12-07T09:45:06;100110.06;;;6.37;61.75
28797;BME280;24974;54.444;18.560;2022-12-07T09:47:38;100116.59;;;7.06;59.91
28797;BME280;24974;54.444;18.560;2022-12-07T09:50:14;100115.38;;;6.66;61.23
28797;BME280;24974;54.444;18.560;2022-12-07T09:52:47;100119.94;;;5.90;62.95
28797;BME280;24974;54.444;18.560;2022-12-07T09:55:28;100108.78;;;6.99;60.70
28797;BME280;24974;54.444;18.560;2022-12-07T09:57:59;100110.50;;;6.95;60.89
28797;BME280;24974;54.444;18.560;2022-12-07T10:00:30;100106.75;;;7.05;59.90
28797;BME280;24974;54.444;18.560;2022-12-07T10:03:02;100107.31;;;6.88;59.89
28797;BME280;24974;54.444;18.560;2022-12-07T10:05:39;100117.28;;;6.28;62.18
28797;BME280;24974;54.444;18.560;2022-12-07T10:08:13;100115.06;;;7.00;59.75
28797;BME280;24974;54.444;18.560;2022-12-07T10:10:51;100115.41;;;6.80;60.20
28797;BME280;24974;54.444;18.560;2022-12-07T10:13:46;100123.81;;;6.08;62.05
28797;BME280;24974;54.444;18.560;2022-12-07T10:18:57;100111.47;;;6.34;61.40
28797;BME280;24974;54.444;18.560;2022-12-07T10:24:35;100110.81;;;6.42;61.29
28797;BME280;24974;54.444;18.560;2022-12-07T10:27:29;100095.66;;;5.94;62.11
28797;BME280;24974;54.444;18.560;2022-12-07T10:30:07;100104.13;;;6.67;60.28
28797;BME280;24974;54.444;18.560;2022-12-07T10:32:38;100088.38;;;6.08;61.65
28797;BME280;24974;54.444;18.560;2022-12-07T10:35:28;100094.19;;;6.39;61.43
28797;BME280;24974;54.444;18.560;2022-12-07T10:38:00;100087.13;;;6.38;60.38
28797;BME280;24974;54.444;18.560;2022-12-07T10:40:34;100085.13;;;5.82;61.53
28797;BME280;24974;54.444;18.560;2022-12-07T10:43:18;100085.09;;;6.62;60.05
28797;BME280;24974;54.444;18.560;2022-12-07T10:48:52;100080.38;;;6.49;60.51
28797;BME280;24974;54.444;18.560;2022-12-07T10:52:00;100069.34;;;6.73;60.10
28797;BME280;24974;54.444;18.560;2022-12-07T10:58:00;100065.38;;;6.14;61.13
28797;BME280;24974;54.444;18.560;2022-12-07T11:00:43;100075.28;;;5.86;61.97
28797;BME280;24974;54.444;18.560;2022-12-07T11:06:26;100071.34;;;5.97;62.53
28797;BME280;24974;54.444;18.560;2022-12-07T11:17:58;100055.50;;;6.18;60.81
28797;BME280;24974;54.444;18.560;2022-12-07T11:23:48;100049.88;;;6.09;60.63
28797;BME280;24974;54.444;18.560;2022-12-07T11:38:17;100026.06;;;6.66;58.73
28797;BME280;24974;54.444;18.560;2022-12-07T11:40:51;100026.66;;;6.12;59.82
28797;BME280;24974;54.444;18.560;2022-12-07T11:46:26;100029.16;;;6.08;60.18
28797;BME280;24974;54.444;18.560;2022-12-07T11:49:33;100019.09;;;5.85;60.37
28797;BME280;24974;54.444;18.560;2022-12-07T11:51:57;100020.13;;;5.94;60.37
28797;BME280;24974;54.444;18.560;2022-12-07T11:54:35;100022.94;;;5.65;61.03
28797;BME280;24974;54.444;18.560;2022-12-07T11:57:20;100029.47;;;6.58;59.20
28797;BME280;24974;54.444;18.560;2022-12-07T12:00:00;100015.00;;;6.06;59.84
28797;BME280;24974;54.444;18.560;2022-12-07T12:03:30;100020.69;;;5.91;59.79
28797;BME280;24974;54.444;18.560;2022-12-07T12:05:41;100011.50;;;6.38;58.35
28797;BME280;24974;54.444;18.560;2022-12-07T12:08:21;100013.88;;;5.88;59.60
28797;BME280;24974;54.444;18.560;2022-12-07T12:11:08;100015.34;;;6.37;58.86
28797;BME280;24974;54.444;18.560;2022-12-07T12:19:34;99999.97;;;6.41;58.69
28797;BME280;24974;54.444;18.560;2022-12-07T12:22:18;99994.38;;;6.00;59.56
28797;BME280;24974;54.444;18.560;2022-12-07T12:24:53;99997.91;;;6.52;58.69
28797;BME280;24974;54.444;18.560;2022-12-07T12:27:34;99981.25;;;6.67;58.04
28797;BME280;24974;54.444;18.560;2022-12-07T12:30:23;99982.66;;;6.32;59.03
28797;BME280;24974;54.444;18.560;2022-12-07T12:33:02;99979.06;;;6.83;57.56
28797;BME280;24974;54.444;18.560;2022-12-07T12:35:35;99978.88;;;6.93;57.23
28797;BME280;24974;54.444;18.560;2022-12-07T12:41:02;99970.66;;;7.21;56.69
28797;BME280;24974;54.444;18.560;2022-12-07T12:43:52;99966.66;;;5.93;60.05
28797;BME280;24974;54.444;18.560;2022-12-07T12:49:34;99968.31;;;6.59;58.48
28797;BME280;24974;54.444;18.560;2022-12-07T12:52:00;99962.06;;;7.41;56.35
28797;BME280;24974;54.444;18.560;2022-12-07T12:54:35;99962.88;;;6.08;59.09
28797;BME280;24974;54.444;18.560;2022-12-07T12:57:21;99959.69;;;6.20;59.28
28797;BME280;24974;54.444;18.560;2022-12-07T13:02:26;99961.53;;;6.24;58.78
28797;BME280;24974;54.444;18.560;2022-12-07T13:05:18;99945.50;;;5.66;60.93
28797;BME280;24974;54.444;18.560;2022-12-07T13:07:56;99948.81;;;6.01;60.01
28797;BME280;24974;54.444;18.560;2022-12-07T13:18:38;99938.72;;;6.34;59.22
28797;BME280;24974;54.444;18.560;2022-12-07T13:28:52;99941.28;;;5.93;60.03
28797;BME280;24974;54.444;18.560;2022-12-07T13:34:32;99943.44;;;5.58;61.18
28797;BME280;24974;54.444;18.560;2022-12-07T13:37:14;99938.78;;;5.58;61.38
28797;BME280;24974;54.444;18.560;2022-12-07T13:39:57;99929.06;;;5.71;60.76
28797;BME280;24974;54.444;18.560;2022-12-07T13:42:31;99933.41;;;5.53;61.43
28797;BME280;24974;54.444;18.560;2022-12-07T13:45:24;99935.19;;;5.63;60.97
28797;BME280;24974;54.444;18.560;2022-12-07T13:48:33;99928.78;;;5.92;59.73
28797;BME280;24974;54.444;18.560;2022-12-07T13:51:14;99926.38;;;5.28;61.24
28797;BME280;24974;54.444;18.560;2022-12-07T13:53:54;99926.28;;;5.95;59.34
28797;BME280;24974;54.444;18.560;2022-12-07T13:56:33;99925.22;;;5.91;59.28
28797;BME280;24974;54.444;18.560;2022-12-07T13:59:10;99922.75;;;6.27;58.65
28797;BME280;24974;54.444;18.560;2022-12-07T14:01:45;99922.81;;;5.71;59.59
28797;BME280;24974;54.444;18.560;2022-12-07T14:04:30;99920.25;;;5.18;61.19
28797;BME280;24974;54.444;18.560;2022-12-07T14:07:19;99912.78;;;5.47;60.66
28797;BME280;24974;54.444;18.560;2022-12-07T14:09:58;99904.59;;;6.04;59.07
28797;BME280;24974;54.444;18.560;2022-12-07T14:12:31;99910.13;;;5.61;59.25
28797;BME280;24974;54.444;18.560;2022-12-07T14:15:03;99915.50;;;5.47;60.60
28797;BME280;24974;54.444;18.560;2022-12-07T14:17:34;99903.13;;;5.74;59.78
28797;BME280;24974;54.444;18.560;2022-12-07T14:20:35;99894.00;;;5.65;60.40
28797;BME280;24974;54.444;18.560;2022-12-07T14:23:23;99901.78;;;5.52;59.85
28797;BME280;24974;54.444;18.560;2022-12-07T14:26:06;99899.44;;;5.27;60.60
28797;BME280;24974;54.444;18.560;2022-12-07T14:28:38;99902.34;;;4.93;62.19
28797;BME280;24974;54.444;18.560;2022-12-07T14:31:14;99899.72;;;5.82;59.83
28797;BME280;24974;54.444;18.560;2022-12-07T14:33:46;99897.09;;;5.58;60.40
28797;BME280;24974;54.444;18.560;2022-12-07T14:36:17;99899.72;;;5.44;60.94
28797;BME280;24974;54.444;18.560;2022-12-07T14:38:48;99897.16;;;5.53;60.66
28797;BME280;24974;54.444;18.560;2022-12-07T14:41:22;99905.13;;;5.30;61.48
28797;BME280;24974;54.444;18.560;2022-12-07T14:44:12;99900.94;;;5.38;61.34
28797;BME280;24974;54.444;18.560;2022-12-07T14:46:42;99898.19;;;5.19;62.14
28797;BME280;24974;54.444;18.560;2022-12-07T14:49:13;99894.78;;;5.09;62.36
28797;BME280;24974;54.444;18.560;2022-12-07T14:51:46;99896.78;;;5.59;61.28
28797;BME280;24974;54.444;18.560;2022-12-07T14:54:19;99907.19;;;4.72;63.15
28797;BME280;24974;54.444;18.560;2022-12-07T14:56:50;99889.78;;;5.34;61.76
28797;BME280;24974;54.444;18.560;2022-12-07T14:59:21;99890.81;;;5.57;60.43
28797;BME280;24974;54.444;18.560;2022-12-07T15:01:52;99892.88;;;5.28;61.59
28797;BME280;24974;54.444;18.560;2022-12-07T15:04:23;99885.66;;;5.37;61.21
28797;BME280;24974;54.444;18.560;2022-12-07T15:06:59;99894.31;;;5.01;62.38
28797;BME280;24974;54.444;18.560;2022-12-07T15:09:30;99887.81;;;5.59;60.47
28797;BME280;24974;54.444;18.560;2022-12-07T15:12:01;99897.06;;;4.77;62.72
28797;BME280;24974;54.444;18.560;2022-12-07T15:14:33;99878.63;;;4.93;62.38
28797;BME280;24974;54.444;18.560;2022-12-07T15:17:03;99884.22;;;4.59;63.50
28797;BME280;24974;54.444;18.560;2022-12-07T15:19:34;99887.56;;;5.18;61.57
28797;BME280;24974;54.444;18.560;2022-12-07T15:22:05;99883.06;;;4.65;63.25
28797;BME280;24974;54.444;18.560;2022-12-07T15:24:36;99886.50;;;4.95;62.44
28797;BME280;24974;54.444;18.560;2022-12-07T15:27:07;99903.59;;;5.00;62.31
28797;BME280;24974;54.444;18.560;2022-12-07T15:29:38;99890.00;;;4.53;63.41
28797;BME280;24974;54.444;18.560;2022-12-07T15:32:09;99889.19;;;5.00;62.11
28797;BME280;24974;54.444;18.560;2022-12-07T15:34:40;99889.53;;;4.69;62.94
28797;BME280;24974;54.444;18.560;2022-12-07T15:37:10;99884.44;;;4.87;62.56
28797;BME280;24974;54.444;18.560;2022-12-07T15:39:41;99888.56;;;4.60;62.91
28797;BME280;24974;54.444;18.560;2022-12-07T15:42:12;99884.44;;;4.87;62.43
28797;BME280;24974;54.444;18.560;2022-12-07T15:44:43;99892.03;;;4.90;61.86
28797;BME280;24974;54.444;18.560;2022-12-07T15:47:37;99888.84;;;4.83;62.82
28797;BME280;24974;54.444;18.560;2022-12-07T15:50:12;99885.66;;;4.99;61.99
28797;BME280;24974;54.444;18.560;2022-12-07T15:52:43;99881.56;;;4.97;62.08
28797;BME280;24974;54.444;18.560;2022-12-07T15:55:14;99877.94;;;5.25;61.06
28797;BME280;24974;54.444;18.560;2022-12-07T15:57:45;99883.94;;;4.61;63.01
28797;BME280;24974;54.444;18.560;2022-12-07T16:00:16;99891.34;;;4.79;62.19
28797;BME280;24974;54.444;18.560;2022-12-07T16:02:47;99888.47;;;5.32;60.98
28797;BME280;24974;54.444;18.560;2022-12-07T16:05:18;99866.50;;;4.62;62.51
28797;BME280;24974;54.444;18.560;2022-12-07T16:07:48;99879.31;;;4.32;63.90
28797;BME280;24974;54.444;18.560;2022-12-07T16:10:19;99884.78;;;4.80;63.19
28797;BME280;24974;54.444;18.560;2022-12-07T16:12:50;99875.56;;;5.00;61.93
28797;BME280;24974;54.444;18.560;2022-12-07T16:15:21;99892.56;;;4.92;62.77
28797;BME280;24974;54.444;18.560;2022-12-07T16:17:52;99890.34;;;4.70;63.06
28797;BME280;24974;54.444;18.560;2022-12-07T16:20:23;99890.97;;;5.10;61.78
28797;BME280;24974;54.444;18.560;2022-12-07T16:22:54;99890.41;;;5.31;61.75
28797;BME280;24974;54.444;18.560;2022-12-07T16:25:25;99898.75;;;4.73;62.60
28797;BME280;24974;54.444;18.560;2022-12-07T16:27:56;99885.25;;;5.30;61.30
28797;BME280;24974;54.444;18.560;2022-12-07T16:30:27;99883.78;;;5.38;61.44
28797;BME280;24974;54.444;18.560;2022-12-07T16:32:58;99891.81;;;5.05;62.11
28797;BME280;24974;54.444;18.560;2022-12-07T16:35:28;99887.25;;;5.00;62.64
28797;BME280;24974;54.444;18.560;2022-12-07T16:37:59;99886.97;;;5.02;62.34
28797;BME280;24974;54.444;18.560;2022-12-07T16:40:30;99883.13;;;5.03;62.58
28797;BME280;24974;54.444;18.560;2022-12-07T16:43:01;99887.31;;;4.95;62.53
28797;BME280;24974;54.444;18.560;2022-12-07T16:45:32;99885.50;;;4.91;63.20
28797;BME280;24974;54.444;18.560;2022-12-07T16:48:03;99890.47;;;4.36;65.05
28797;BME280;24974;54.444;18.560;2022-12-07T16:50:34;99872.22;;;4.84;64.51
28797;BME280;24974;54.444;18.560;2022-12-07T16:53:04;99875.81;;;4.80;64.56
28797;BME280;24974;54.444;18.560;2022-12-07T16:55:40;99869.16;;;4.43;66.45
28797;BME280;24974;54.444;18.560;2022-12-07T16:58:13;99860.84;;;4.58;65.67
28797;BME280;24974;54.444;18.560;2022-12-07T17:00:44;99865.28;;;4.49;66.63
28797;BME280;24974;54.444;18.560;2022-12-07T17:03:15;99871.84;;;3.90;68.12
28797;BME280;24974;54.444;18.560;2022-12-07T17:05:47;99857.75;;;4.65;66.14
28797;BME280;24974;54.444;18.560;2022-12-07T17:08:19;99864.47;;;4.48;66.22
28797;BME280;24974;54.444;18.560;2022-12-07T17:10:50;99864.03;;;4.12;67.11
28797;BME280;24974;54.444;18.560;2022-12-07T17:13:21;99870.13;;;4.28;66.63
28797;BME280;24974;54.444;18.560;2022-12-07T17:16:10;99853.69;;;4.62;65.10
28797;BME280;24974;54.444;18.560;2022-12-07T17:18:40;99855.66;;;4.33;65.83
28797;BME280;24974;54.444;18.560;2022-12-07T17:21:11;99852.56;;;4.15;66.46
28797;BME280;24974;54.444;18.560;2022-12-07T17:23:42;99862.38;;;4.40;65.58
28797;BME280;24974;54.444;18.560;2022-12-07T17:26:16;99867.66;;;4.56;64.84
28797;BME280;24974;54.444;18.560;2022-12-07T17:28:47;99868.22;;;4.76;64.40
28797;BME280;24974;54.444;18.560;2022-12-07T17:31:21;99865.53;;;4.24;65.73
28797;BME280;24974;54.444;18.560;2022-12-07T17:33:52;99865.63;;;4.18;65.69
28797;BME280;24974;54.444;18.560;2022-12-07T17:36:26;99877.63;;;4.65;64.20
28797;BME280;24974;54.444;18.560;2022-12-07T17:38:57;99875.72;;;4.66;64.14
28797;BME280;24974;54.444;18.560;2022-12-07T17:41:28;99868.25;;;4.53;64.04
28797;BME280;24974;54.444;18.560;2022-12-07T17:44:18;99874.47;;;4.29;65.68
28797;BME280;24974;54.444;18.560;2022-12-07T17:46:52;99870.13;;;4.28;65.13
28797;BME280;24974;54.444;18.560;2022-12-07T17:49:29;99868.22;;;4.29;65.81
28797;BME280;24974;54.444;18.560;2022-12-07T17:52:00;99868.97;;;4.10;66.41
28797;BME280;24974;54.444;18.560;2022-12-07T17:54:49;99876.50;;;4.18;65.92
28797;BME280;24974;54.444;18.560;2022-12-07T17:57:20;99871.47;;;4.31;65.74
28797;BME280;24974;54.444;18.560;2022-12-07T17:59:50;99880.97;;;4.04;66.46
28797;BME280;24974;54.444;18.560;2022-12-07T18:02:21;99877.56;;;4.70;64.21
28797;BME280;24974;54.444;18.560;2022-12-07T18:04:52;99874.31;;;4.68;64.26
28797;BME280;24974;54.444;18.560;2022-12-07T18:07:23;99884.50;;;4.05;66.07
28797;BME280;24974;54.444;18.560;2022-12-07T18:09:54;99864.25;;;4.16;65.71
28797;BME280;24974;54.444;18.560;2022-12-07T18:12:25;99874.13;;;4.84;63.09
28797;BME280;24974;54.444;18.560;2022-12-07T18:14:56;99880.88;;;4.14;64.92
28797;BME280;24974;54.444;18.560;2022-12-07T18:17:26;99867.88;;;3.77;65.90
28797;BME280;24974;54.444;18.560;2022-12-07T18:19:57;99882.22;;;3.83;66.14
28797;BME280;24974;54.444;18.560;2022-12-07T18:22:28;99868.09;;;4.39;64.65
28797;BME280;24974;54.444;18.560;2022-12-07T18:24:59;99874.81;;;4.46;64.29
28797;BME280;24974;54.444;18.560;2022-12-07T18:27:30;99872.34;;;4.50;63.94
28797;BME280;24974;54.444;18.560;2022-12-07T18:30:01;99893.34;;;3.86;64.87
28797;BME280;24974;54.444;18.560;2022-12-07T18:32:31;99868.25;;;4.24;64.57
28797;BME280;24974;54.444;18.560;2022-12-07T18:35:02;99866.78;;;4.84;62.24
28797;BME280;24974;54.444;18.560;2022-12-07T18:37:33;99865.16;;;4.35;64.22
28797;BME280;24974;54.444;18.560;2022-12-07T18:40:05;99866.19;;;4.63;63.17
28797;BME280;24974;54.444;18.560;2022-12-07T18:42:36;99861.81;;;4.67;63.04
28797;BME280;24974;54.444;18.560;2022-12-07T18:45:07;99873.50;;;4.15;64.45
28797;BME280;24974;54.444;18.560;2022-12-07T18:47:38;99875.63;;;4.23;63.68
28797;BME280;24974;54.444;18.560;2022-12-07T18:50:09;99880.94;;;4.09;64.14
28797;BME280;24974;54.444;18.560;2022-12-07T18:52:40;99878.44;;;4.42;63.17
28797;BME280;24974;54.444;18.560;2022-12-07T18:55:11;99872.28;;;4.55;63.43
28797;BME280;24974;54.444;18.560;2022-12-07T18:57:41;99873.50;;;4.15;64.53
28797;BME280;24974;54.444;18.560;2022-12-07T19:00:13;99870.41;;;4.98;61.91
28797;BME280;24974;54.444;18.560;2022-12-07T19:02:44;99873.81;;;4.42;63.73
28797;BME280;24974;54.444;18.560;2022-12-07T19:05:15;99872.22;;;4.84;62.50
28797;BME280;24974;54.444;18.560;2022-12-07T19:07:46;99865.81;;;4.51;63.19
28797;BME280;24974;54.444;18.560;2022-12-07T19:10:18;99877.50;;;4.52;63.28
28797;BME280;24974;54.444;18.560;2022-12-07T19:12:49;99878.19;;;4.62;63.04
28797;BME280;24974;54.444;18.560;2022-12-07T19:15:20;99875.06;;;4.26;63.89
28797;BME280;24974;54.444;18.560;2022-12-07T19:17:51;99878.88;;;4.49;63.19
28797;BME280;24974;54.444;18.560;2022-12-07T19:20:22;99884.69;;;4.42;63.17
28797;BME280;24974;54.444;18.560;2022-12-07T19:22:52;99884.41;;;4.68;62.15
28797;BME280;24974;54.444;18.560;2022-12-07T19:25:24;99878.53;;;4.56;62.48
28797;BME280;24974;54.444;18.560;2022-12-07T19:27:54;99884.50;;;4.82;61.45
28797;BME280;24974;54.444;18.560;2022-12-07T19:30:25;99879.53;;;4.12;63.67
28797;BME280;24974;54.444;18.560;2022-12-07T19:32:56;99888.41;;;4.22;63.65
28797;BME280;24974;54.444;18.560;2022-12-07T19:35:27;99895.41;;;4.29;63.73
28797;BME280;24974;54.444;18.560;2022-12-07T19:37:57;99889.78;;;4.20;63.98
28797;BME280;24974;54.444;18.560;2022-12-07T19:40:28;99880.13;;;4.33;63.04
28797;BME280;24974;54.444;18.560;2022-12-07T19:42:59;99884.06;;;4.21;63.51
28797;BME280;24974;54.444;18.560;2022-12-07T19:45:30;99866.78;;;3.78;64.98
28797;BME280;24974;54.444;18.560;2022-12-07T19:48:04;99874.19;;;4.78;62.34
28797;BME280;24974;54.444;18.560;2022-12-07T19:50:34;99876.78;;;4.65;61.83
28797;BME280;24974;54.444;18.560;2022-12-07T19:53:05;99886.91;;;4.06;63.70
28797;BME280;24974;54.444;18.560;2022-12-07T19:55:40;99879.28;;;4.37;62.63
28797;BME280;24974;54.444;18.560;2022-12-07T19:58:12;99890.75;;;4.05;63.59
28797;BME280;24974;54.444;18.560;2022-12-07T20:00:43;99885.84;;;4.84;61.46
28797;BME280;24974;54.444;18.560;2022-12-07T20:03:14;99894.53;;;4.09;63.56
28797;BME280;24974;54.444;18.560;2022-12-07T20:05:45;99896.63;;;4.17;63.59
28797;BME280;24974;54.444;18.560;2022-12-07T20:08:16;99889.03;;;4.67;61.58
28797;BME280;24974;54.444;18.560;2022-12-07T20:10:47;99884.06;;;4.21;62.76
28797;BME280;24974;54.444;18.560;2022-12-07T20:13:19;99884.28;;;4.54;63.03
28797;BME280;24974;54.444;18.560;2022-12-07T20:16:03;99885.72;;;4.70;62.42
28797;BME280;24974;54.444;18.560;2022-12-07T20:18:34;99898.28;;;4.13;64.79
28797;BME280;24974;54.444;18.560;2022-12-07T20:21:05;99887.88;;;3.91;65.05
28797;BME280;24974;54.444;18.560;2022-12-07T20:23:36;99890.31;;;4.22;63.85
28797;BME280;24974;54.444;18.560;2022-12-07T20:26:09;99894.31;;;4.01;64.41
28797;BME280;24974;54.444;18.560;2022-12-07T20:28:41;99891.56;;;4.35;63.43
28797;BME280;24974;54.444;18.560;2022-12-07T20:31:16;99900.97;;;3.84;64.69
28797;BME280;24974;54.444;18.560;2022-12-07T20:33:47;99892.47;;;3.96;64.18
28797;BME280;24974;54.444;18.560;2022-12-07T20:36:18;99899.72;;;4.06;63.79
28797;BME280;24974;54.444;18.560;2022-12-07T20:38:50;99900.41;;;4.16;62.63
28797;BME280;24974;54.444;18.560;2022-12-07T20:41:21;99910.25;;;4.12;62.67
28797;BME280;24974;54.444;18.560;2022-12-07T20:44:14;99911.09;;;4.08;63.02